createdAt,value
2022-10-11T00:00:41.986Z,72.01
2022-10-11T00:03:14.580Z,71.80
2022-10-11T00:05:44.117Z,71.55
2022-10-11T00:08:15.561Z,71.40
2022-10-11T00:10:46.125Z,71.35
2022-10-11T00:13:16.775Z,71.25
2022-10-11T00:15:49.510Z,71.01
2022-10-11T00:18:20.309Z,70.68
2022-10-11T00:20:51.033Z,70.92
2022-10-11T00:23:21.695Z,70.91
2022-10-11T00:26:01.019Z,70.49
2022-10-11T00:28:32.377Z,70.67
2022-10-11T00:31:05.311Z,70.84
2022-10-11T00:33:36.275Z,71.20
2022-10-11T00:36:08.978Z,71.18
2022-10-11T00:38:40.062Z,71.24
2022-10-11T00:41:11.144Z,71.38
2022-10-11T00:43:42.211Z,71.30
2022-10-11T00:46:39.049Z,71.39
2022-10-11T00:49:18.519Z,71.29
2022-10-11T00:51:54.460Z,71.55
2022-10-11T00:54:28.453Z,71.40
2022-10-11T00:57:04.178Z,71.37
2022-10-11T00:59:39.349Z,71.37
2022-10-11T01:02:11.084Z,71.63
2022-10-11T01:04:42.439Z,71.95
2022-10-11T01:07:14.191Z,71.79
2022-10-11T01:09:44.861Z,71.85
2022-10-11T01:12:19.877Z,71.77
2022-10-11T01:15:05.375Z,71.81
2022-10-11T01:17:43.635Z,71.71
2022-10-11T01:20:33.141Z,71.59
2022-10-11T01:23:34.492Z,71.41
2022-10-11T01:26:30.172Z,71.40
2022-10-11T01:29:13.563Z,71.29
2022-10-11T01:31:52.382Z,71.43
2022-10-11T01:34:33.960Z,71.72
2022-10-11T01:37:12.221Z,71.84
2022-10-11T01:39:49.444Z,71.63
2022-10-11T01:42:21.773Z,71.63
2022-10-11T01:44:53.513Z,71.69
2022-10-11T01:47:25.264Z,71.65
2022-10-11T01:50:01.483Z,71.62
2022-10-11T01:52:37.734Z,71.54
2022-10-11T01:55:25.680Z,71.47
2022-10-11T01:58:14.141Z,71.47
2022-10-11T02:00:52.450Z,71.44
2022-10-11T02:03:35.139Z,71.36
2022-10-11T02:06:11.527Z,71.43
2022-10-11T02:08:51.170Z,71.61
2022-10-11T02:11:27.055Z,71.59
2022-10-11T02:14:01.523Z,71.56
2022-10-11T02:16:40.734Z,71.61
2022-10-11T02:19:13.581Z,71.59
2022-10-11T02:21:47.106Z,71.73
2022-10-11T02:24:23.624Z,71.62
2022-10-11T02:26:58.192Z,71.73
2022-10-11T02:29:31.682Z,71.59
2022-10-11T02:32:03.202Z,71.74
2022-10-11T02:34:36.616Z,71.74
2022-10-11T02:37:11.927Z,71.83
2022-10-11T02:39:46.964Z,71.86
2022-10-11T02:42:22.193Z,71.95
2022-10-11T02:45:00.653Z,71.89
2022-10-11T02:47:32.871Z,72.10
2022-10-11T02:50:04.121Z,72.08
2022-10-11T02:52:34.967Z,72.05
2022-10-11T02:55:06.724Z,71.76
2022-10-11T02:57:37.319Z,71.79
2022-10-11T03:00:10.158Z,71.77
2022-10-11T03:02:40.924Z,71.71
2022-10-11T03:05:11.974Z,71.68
2022-10-11T03:07:42.828Z,71.69
2022-10-11T03:10:13.962Z,71.63
2022-10-11T03:12:44.710Z,71.57
2022-10-11T03:15:15.321Z,71.43
2022-10-11T03:17:46.071Z,71.54
2022-10-11T03:20:16.639Z,71.33
2022-10-11T03:22:47.367Z,71.24
2022-10-11T03:25:18.154Z,71.10
2022-10-11T03:27:48.870Z,70.94
2022-10-11T03:30:20.244Z,70.24
2022-10-11T03:32:50.818Z,70.21
2022-10-11T03:35:21.916Z,70.40
2022-10-11T03:37:53.119Z,70.34
2022-10-11T03:40:23.971Z,70.22
2022-10-11T03:42:56.480Z,70.06
2022-10-11T03:45:25.704Z,69.99
2022-10-11T03:47:56.315Z,69.33
2022-10-11T03:50:26.948Z,69.27
2022-10-11T03:52:57.629Z,69.08
2022-10-11T03:55:28.250Z,68.47
2022-10-11T03:57:59.041Z,68.44
2022-10-11T04:00:29.659Z,68.56
2022-10-11T04:03:00.275Z,68.84
2022-10-11T04:05:31.331Z,68.56
2022-10-11T04:08:02.049Z,68.49
2022-10-11T04:10:32.757Z,68.05
2022-10-11T04:13:03.398Z,67.88
2022-10-11T04:15:34.032Z,67.72
2022-10-11T04:18:04.804Z,67.36
2022-10-11T04:20:35.751Z,67.47
2022-10-11T04:23:06.301Z,67.57
2022-10-11T04:25:38.917Z,67.34
2022-10-11T04:28:09.734Z,67.06
2022-10-11T04:30:41.401Z,67.04
2022-10-11T04:33:12.381Z,66.91
2022-10-11T04:35:43.080Z,66.56
2022-10-11T04:38:14.118Z,66.56
2022-10-11T04:40:44.839Z,65.93
2022-10-11T04:43:16.907Z,66.87
2022-10-11T04:45:48.490Z,66.94
2022-10-11T04:48:21.032Z,67.17
2022-10-11T04:50:52.431Z,66.80
2022-10-11T04:53:23.318Z,67.01
2022-10-11T04:56:01.397Z,66.79
2022-10-11T04:58:33.378Z,66.40
2022-10-11T05:01:04.583Z,66.89
2022-10-11T05:03:35.317Z,67.03
2022-10-11T05:06:07.389Z,66.87
2022-10-11T05:08:38.251Z,67.20
2022-10-11T05:11:14.859Z,67.43
2022-10-11T05:13:47.253Z,67.21
2022-10-11T05:16:18.563Z,66.56
2022-10-11T05:18:49.251Z,68.43
2022-10-11T05:21:21.860Z,68.35
2022-10-11T05:23:51.541Z,68.28
2022-10-11T05:26:23.548Z,68.70
2022-10-11T05:28:54.271Z,68.39
2022-10-11T05:31:25.728Z,66.92
2022-10-11T05:33:56.497Z,67.88
2022-10-11T05:36:27.174Z,68.98
2022-10-11T05:38:57.990Z,69.49
2022-10-11T05:41:29.331Z,69.83
2022-10-11T05:44:00.138Z,69.81
2022-10-11T05:46:30.811Z,69.02
2022-10-11T05:49:01.479Z,68.34
2022-10-11T05:51:32.458Z,68.24
2022-10-11T05:54:03.116Z,67.24
2022-10-11T05:56:33.908Z,67.18
2022-10-11T05:59:05.520Z,67.34
2022-10-11T06:01:36.273Z,67.78
2022-10-11T06:04:08.332Z,67.88
2022-10-11T06:06:38.924Z,68.22
2022-10-11T06:09:09.749Z,68.43
2022-10-11T06:11:42.557Z,68.52
2022-10-11T06:14:13.278Z,68.47
2022-10-11T06:16:43.864Z,68.56
2022-10-11T06:19:14.600Z,68.71
2022-10-11T06:21:46.731Z,68.91
2022-10-11T06:24:17.541Z,68.88
2022-10-11T06:26:49.452Z,68.99
2022-10-11T06:29:20.101Z,68.94
2022-10-11T06:31:52.021Z,68.70
2022-10-11T06:34:22.894Z,68.29
2022-10-11T06:36:53.511Z,68.02
2022-10-11T06:39:24.288Z,67.78
2022-10-11T06:41:55.094Z,67.64
2022-10-11T06:44:26.658Z,67.11
2022-10-11T06:46:57.377Z,66.89
2022-10-11T06:49:28.187Z,66.44
2022-10-11T06:51:58.871Z,65.89
2022-10-11T06:54:29.565Z,65.52
2022-10-11T06:57:01.179Z,64.78
2022-10-11T06:59:31.825Z,64.15
2022-10-11T07:02:02.604Z,63.52
2022-10-11T07:04:34.140Z,63.13
2022-10-11T07:07:04.823Z,62.70
2022-10-11T07:09:36.701Z,62.43
2022-10-11T07:12:08.832Z,61.57
2022-10-11T07:14:39.423Z,61.26
2022-10-11T07:17:10.221Z,60.78
2022-10-11T07:19:41.007Z,60.11
2022-10-11T07:22:11.716Z,59.54
2022-10-11T07:24:42.420Z,60.18
2022-10-11T07:27:12.995Z,59.71
2022-10-11T07:29:44.127Z,59.55
2022-10-11T07:32:16.376Z,59.33
2022-10-11T07:34:47.572Z,58.88
2022-10-11T07:37:18.174Z,58.61
2022-10-11T07:39:49.922Z,57.82
2022-10-11T07:42:22.099Z,57.29
2022-10-11T07:44:52.835Z,57.09
2022-10-11T07:47:23.538Z,56.78
2022-10-11T07:49:54.367Z,56.54
2022-10-11T07:52:25.166Z,56.11
2022-10-11T07:54:55.773Z,55.77
2022-10-11T07:57:26.618Z,55.94
2022-10-11T07:59:57.200Z,55.52
2022-10-11T08:02:27.899Z,55.78
2022-10-11T08:04:58.655Z,55.52
2022-10-11T08:07:29.786Z,55.08
2022-10-11T08:10:00.596Z,54.75
2022-10-11T08:12:31.301Z,54.42
2022-10-11T08:15:02.744Z,54.09
2022-10-11T08:17:33.594Z,54.13
2022-10-11T08:20:04.670Z,53.71
2022-10-11T08:22:35.423Z,52.94
2022-10-11T08:25:07.250Z,52.98
2022-10-11T08:27:37.978Z,53.01
2022-10-11T08:30:11.423Z,52.81
2022-10-11T08:32:42.139Z,52.32
2022-10-11T08:35:13.297Z,52.22
2022-10-11T08:37:43.965Z,52.17
2022-10-11T08:40:19.170Z,52.38
2022-10-11T08:42:54.550Z,52.63
2022-10-11T08:45:32.246Z,52.51
2022-10-11T08:48:14.618Z,51.15
2022-10-11T08:50:48.245Z,50.99
2022-10-11T08:53:28.317Z,51.48
2022-10-11T08:55:59.545Z,51.41
2022-10-11T08:58:39.434Z,50.79
2022-10-11T09:01:19.295Z,50.68
2022-10-11T09:03:51.005Z,50.38
2022-10-11T09:06:38.524Z,50.25
2022-10-11T09:09:40.151Z,49.73
2022-10-11T09:12:19.746Z,49.84
2022-10-11T09:15:04.301Z,49.72
2022-10-11T09:17:50.017Z,48.78
2022-10-11T09:20:37.055Z,48.19
2022-10-11T09:23:18.825Z,47.54
2022-10-11T09:25:54.459Z,47.72
2022-10-11T09:28:39.221Z,47.80
2022-10-11T09:31:13.021Z,47.79
2022-10-11T09:33:47.063Z,48.00
2022-10-11T09:36:26.804Z,48.44
2022-10-11T09:39:06.980Z,47.53
2022-10-11T09:41:44.158Z,47.22
2022-10-11T09:44:20.983Z,48.01
2022-10-11T09:46:52.844Z,47.83
2022-10-11T09:49:29.662Z,47.37
2022-10-11T09:52:03.389Z,47.24
2022-10-11T09:54:45.836Z,47.55
2022-10-11T09:57:27.767Z,48.13
2022-10-11T10:00:05.882Z,48.03
2022-10-11T10:02:47.535Z,48.65
2022-10-11T10:05:22.325Z,49.12
2022-10-11T10:08:23.759Z,49.12
2022-10-11T10:11:04.103Z,47.60
2022-10-11T10:13:44.079Z,46.59
2022-10-11T10:16:25.230Z,45.99
2022-10-11T10:18:58.624Z,47.07
2022-10-11T10:21:34.800Z,47.51
2022-10-11T10:24:09.849Z,46.88
2022-10-11T10:26:41.088Z,46.67
2022-10-11T10:29:20.248Z,46.67
2022-10-11T10:32:15.025Z,46.62
2022-10-11T10:34:58.239Z,46.66
2022-10-11T10:37:34.603Z,46.59
2022-10-11T10:40:10.187Z,46.37
2022-10-11T10:42:41.132Z,45.36
2022-10-11T10:45:21.609Z,45.14
2022-10-11T10:48:11.827Z,45.45
2022-10-11T10:50:55.859Z,45.54
2022-10-11T10:53:34.246Z,45.55
2022-10-11T10:56:11.561Z,45.49
2022-10-11T10:58:59.087Z,45.90
2022-10-11T11:01:32.841Z,45.92
2022-10-11T11:04:11.533Z,45.06
2022-10-11T11:06:49.936Z,44.90
2022-10-11T11:09:37.627Z,45.16
2022-10-11T11:12:21.328Z,43.74
2022-10-11T11:15:03.544Z,44.38
2022-10-11T11:17:53.118Z,44.38
2022-10-11T11:20:45.217Z,43.88
2022-10-11T11:23:23.504Z,43.89
2022-10-11T11:26:02.561Z,43.72
2022-10-11T11:28:58.517Z,43.81
2022-10-11T11:31:52.712Z,44.14
2022-10-11T11:34:27.738Z,44.19
2022-10-11T11:37:02.530Z,44.14
2022-10-11T11:39:37.656Z,44.13
2022-10-11T11:42:13.415Z,43.60
2022-10-11T11:44:47.121Z,43.48
2022-10-11T11:47:24.310Z,44.57
2022-10-11T11:49:59.943Z,45.29
2022-10-11T11:52:35.147Z,45.72
2022-10-11T11:55:12.232Z,45.30
2022-10-11T11:58:07.231Z,44.97
2022-10-11T12:00:50.221Z,43.88
2022-10-11T12:03:26.356Z,44.44
2022-10-11T12:06:23.005Z,45.42
2022-10-11T12:09:03.755Z,46.04
2022-10-11T12:11:43.514Z,46.15
2022-10-11T12:14:29.541Z,45.69
2022-10-11T12:17:13.958Z,45.68
2022-10-11T12:20:02.755Z,45.96
2022-10-11T12:22:54.716Z,46.05
2022-10-11T12:25:45.145Z,45.18
2022-10-11T12:28:50.843Z,43.52
2022-10-11T12:31:25.557Z,44.14
2022-10-11T12:34:18.711Z,43.91
2022-10-11T12:36:51.040Z,44.40
2022-10-11T12:39:45.719Z,44.23
2022-10-11T12:42:29.374Z,43.57
2022-10-11T12:45:33.605Z,43.35
2022-10-11T12:48:18.658Z,43.52
2022-10-11T12:51:02.228Z,42.40
2022-10-11T12:54:14.391Z,42.70
2022-10-11T12:56:57.855Z,44.01
2022-10-11T12:59:28.884Z,44.15
2022-10-11T13:02:01.459Z,43.86
2022-10-11T13:04:34.462Z,43.69
2022-10-11T13:07:14.236Z,43.97
2022-10-11T13:09:49.089Z,43.92
2022-10-11T13:12:21.666Z,44.03
2022-10-11T13:14:57.171Z,42.97
2022-10-11T13:17:38.050Z,42.56
2022-10-11T13:20:18.462Z,41.96
2022-10-11T13:22:51.556Z,42.38
2022-10-11T13:25:24.928Z,41.42
2022-10-11T13:27:58.443Z,41.13
2022-10-11T13:30:31.877Z,41.50
2022-10-11T13:33:07.139Z,41.68
2022-10-11T13:35:39.470Z,41.75
2022-10-11T13:38:16.750Z,41.79
2022-10-11T13:40:50.822Z,42.71
2022-10-11T13:43:26.020Z,42.90
2022-10-11T13:45:59.059Z,43.28
2022-10-11T13:48:32.144Z,43.94
2022-10-11T13:51:13.414Z,44.03
2022-10-11T13:54:01.160Z,43.86
2022-10-11T13:56:33.882Z,43.80
2022-10-11T13:59:05.494Z,44.07
2022-10-11T14:01:44.849Z,43.92
2022-10-11T14:04:17.717Z,43.78
2022-10-11T14:06:59.252Z,44.09
2022-10-11T14:09:33.023Z,44.74
2022-10-11T14:12:30.967Z,45.01
2022-10-11T14:15:03.072Z,44.38
2022-10-11T14:17:42.119Z,43.95
2022-10-11T14:20:22.241Z,44.27
2022-10-11T14:22:54.981Z,44.27
2022-10-11T14:25:25.658Z,44.23
2022-10-11T14:27:56.410Z,43.57
2022-10-11T14:30:28.453Z,42.70
2022-10-11T14:33:01.770Z,43.34
2022-10-11T14:35:33.758Z,42.94
2022-10-11T14:38:04.450Z,43.27
2022-10-11T14:40:35.910Z,43.65
2022-10-11T14:43:06.578Z,43.87
2022-10-11T14:45:37.233Z,44.08
2022-10-11T14:48:08.464Z,44.22
2022-10-11T14:50:43.183Z,44.39
2022-10-11T14:53:15.325Z,44.91
2022-10-11T14:55:46.531Z,44.75
2022-10-11T14:58:21.095Z,44.88
2022-10-11T15:00:51.770Z,45.01
2022-10-11T15:03:22.523Z,45.25
2022-10-11T15:05:53.106Z,45.45
2022-10-11T15:08:23.769Z,45.48
2022-10-11T15:10:54.599Z,45.60
2022-10-11T15:13:25.586Z,45.93
2022-10-11T15:15:56.272Z,46.16
2022-10-11T15:18:26.888Z,46.52
2022-10-11T15:20:58.253Z,46.66
2022-10-11T15:23:29.363Z,46.80
2022-10-11T15:26:00.236Z,46.99
2022-10-11T15:28:33.207Z,47.00
2022-10-11T15:31:04.114Z,47.05
2022-10-11T15:33:35.043Z,47.22
2022-10-11T15:36:07.007Z,47.31
2022-10-11T15:38:38.035Z,47.47
2022-10-11T15:41:09.482Z,47.56
2022-10-11T15:43:40.409Z,48.01
2022-10-11T15:46:13.946Z,47.92
2022-10-11T15:48:44.969Z,48.25
2022-10-11T15:51:15.880Z,48.39
2022-10-11T15:53:46.533Z,48.52
2022-10-11T15:56:19.724Z,48.80
2022-10-11T15:58:50.380Z,49.04
2022-10-11T16:01:22.573Z,49.02
2022-10-11T16:03:53.277Z,49.27
2022-10-11T16:06:24.456Z,49.94
2022-10-11T16:08:55.511Z,50.31
2022-10-11T16:11:26.227Z,50.52
2022-10-11T16:13:57.140Z,51.04
2022-10-11T16:16:27.863Z,51.15
2022-10-11T16:18:58.478Z,51.45
2022-10-11T16:21:29.069Z,51.84
2022-10-11T16:23:59.670Z,52.35
2022-10-11T16:26:30.299Z,52.94
2022-10-11T16:29:01.177Z,53.05
2022-10-11T16:31:32.017Z,53.22
2022-10-11T16:34:02.727Z,53.15
2022-10-11T16:36:35.956Z,53.73
2022-10-11T16:39:09.716Z,53.97
2022-10-11T16:41:40.644Z,54.22
2022-10-11T16:44:15.042Z,54.19
2022-10-11T16:46:48.200Z,54.49
2022-10-11T16:49:22.173Z,54.96
2022-10-11T16:51:53.816Z,55.37
2022-10-11T16:54:24.997Z,56.03
2022-10-11T16:56:55.914Z,56.37
2022-10-11T16:59:26.770Z,56.97
2022-10-11T17:01:57.910Z,57.17
2022-10-11T17:04:28.839Z,57.49
2022-10-11T17:06:59.553Z,57.84
2022-10-11T17:09:30.434Z,58.18
2022-10-11T17:12:01.480Z,58.71
2022-10-11T17:14:32.132Z,58.90
2022-10-11T17:17:02.927Z,59.40
2022-10-11T17:19:34.259Z,59.70
2022-10-11T17:22:04.894Z,59.77
2022-10-11T17:24:37.406Z,59.93
2022-10-11T17:27:07.017Z,59.95
2022-10-11T17:29:38.227Z,60.02
2022-10-11T17:32:09.548Z,60.26
2022-10-11T17:34:40.347Z,60.23
2022-10-11T17:37:12.598Z,60.41
2022-10-11T17:39:43.260Z,60.60
2022-10-11T17:42:14.051Z,60.84
2022-10-11T17:44:44.706Z,60.97
2022-10-11T17:47:15.680Z,61.16
2022-10-11T17:49:46.487Z,61.20
2022-10-11T17:52:17.212Z,61.43
2022-10-11T17:54:48.113Z,61.64
2022-10-11T17:57:19.194Z,61.80
2022-10-11T17:59:49.958Z,61.84
2022-10-11T18:02:21.161Z,61.95
2022-10-11T18:04:52.028Z,62.03
2022-10-11T18:07:24.040Z,61.92
2022-10-11T18:09:54.734Z,62.14
2022-10-11T18:12:26.066Z,62.23
2022-10-11T18:14:57.004Z,62.28
2022-10-11T18:17:28.385Z,62.42
2022-10-11T18:19:59.050Z,62.55
2022-10-11T18:22:29.660Z,62.76
2022-10-11T18:25:00.416Z,62.79
2022-10-11T18:27:31.916Z,62.80
2022-10-11T18:30:02.656Z,62.79
2022-10-11T18:32:33.337Z,62.87
2022-10-11T18:35:04.279Z,63.01
2022-10-11T18:37:35.132Z,63.10
2022-10-11T18:40:06.935Z,62.99
2022-10-11T18:42:37.684Z,62.97
2022-10-11T18:45:11.001Z,63.09
2022-10-11T18:47:41.576Z,63.12
2022-10-11T18:50:13.196Z,63.46
2022-10-11T18:52:44.747Z,63.65
2022-10-11T18:55:15.827Z,63.55
2022-10-11T18:57:46.396Z,63.52
2022-10-11T19:00:39.714Z,63.56
2022-10-11T19:03:09.130Z,63.35
2022-10-11T19:05:42.348Z,63.40
2022-10-11T19:08:13.075Z,63.49
2022-10-11T19:10:43.858Z,63.68
2022-10-11T19:13:14.622Z,63.76
2022-10-11T19:15:45.483Z,63.78
2022-10-11T19:18:20.359Z,64.08
2022-10-11T19:20:51.226Z,64.07
2022-10-11T19:23:23.719Z,64.15
2022-10-11T19:25:59.118Z,64.43
2022-10-11T19:28:30.439Z,64.48
2022-10-11T19:31:09.700Z,64.54
2022-10-11T19:33:40.727Z,64.95
2022-10-11T19:36:14.794Z,64.74
2022-10-11T19:38:48.509Z,64.97
2022-10-11T19:41:20.844Z,64.97
2022-10-11T19:43:51.625Z,64.96
2022-10-11T19:46:44.360Z,65.04
2022-10-11T19:49:17.461Z,65.28
2022-10-11T19:51:48.402Z,65.25
2022-10-11T19:54:19.865Z,65.20
2022-10-11T19:56:50.728Z,65.29
2022-10-11T19:59:21.467Z,65.24
2022-10-11T20:01:53.404Z,71.27
2022-10-11T20:07:13.466Z,65.09
2022-10-11T20:09:44.286Z,64.71
2022-10-11T20:12:14.977Z,64.51
2022-10-11T20:14:45.754Z,64.51
2022-10-11T20:17:16.459Z,64.62
2022-10-11T20:19:47.308Z,64.93
2022-10-11T20:22:18.050Z,65.14
2022-10-11T20:24:48.676Z,65.21
2022-10-11T20:27:19.393Z,65.66
2022-10-11T20:29:50.115Z,65.56
2022-10-11T20:32:20.867Z,65.80
2022-10-11T20:34:51.683Z,65.93
2022-10-11T20:37:22.276Z,65.78
2022-10-11T20:39:52.883Z,66.16
2022-10-11T20:42:27.589Z,66.39
2022-10-11T20:45:00.330Z,66.41
2022-10-11T20:47:31.412Z,67.98
2022-10-11T20:50:02.445Z,69.07
2022-10-11T20:52:33.455Z,67.82
2022-10-11T20:55:04.307Z,66.87
2022-10-11T20:57:35.311Z,66.72
2022-10-11T21:00:07.749Z,66.78
2022-10-11T21:02:38.858Z,66.91
2022-10-11T21:05:11.393Z,67.70
2022-10-11T21:07:41.996Z,69.50
2022-10-11T21:10:12.887Z,67.64
2022-10-11T21:12:43.495Z,68.41
2022-10-11T21:15:14.378Z,68.21
2022-10-11T21:17:45.227Z,68.10
2022-10-11T21:20:16.394Z,67.55
2022-10-11T21:22:46.989Z,67.08
2022-10-11T21:25:18.158Z,66.60
2022-10-11T21:27:48.792Z,65.37
2022-10-11T21:30:19.789Z,64.79
2022-10-11T21:32:50.786Z,65.39
2022-10-11T21:35:21.451Z,66.49
2022-10-11T21:37:52.106Z,66.68
2022-10-11T21:40:22.748Z,65.83
2022-10-11T21:42:53.528Z,66.19
2022-10-11T21:45:24.567Z,67.43
2022-10-11T21:47:55.181Z,67.28
2022-10-11T21:50:25.751Z,66.40
2022-10-11T21:52:56.685Z,65.68
2022-10-11T21:55:29.583Z,65.96
2022-10-11T21:58:00.254Z,65.97
2022-10-11T22:00:30.844Z,66.02
2022-10-11T22:03:01.673Z,66.12
2022-10-11T22:05:32.368Z,66.48
2022-10-11T22:08:02.980Z,65.27
2022-10-11T22:10:35.078Z,65.42
2022-10-11T22:13:05.946Z,64.99
2022-10-11T22:15:38.010Z,64.28
2022-10-11T22:18:09.056Z,64.46
2022-10-11T22:20:39.904Z,64.52
2022-10-11T22:23:10.647Z,65.28
2022-10-11T22:25:41.962Z,65.15
2022-10-11T22:28:12.660Z,65.39
2022-10-11T22:30:43.875Z,65.67
2022-10-11T22:33:14.622Z,65.81
2022-10-11T22:35:45.263Z,66.34
2022-10-11T22:38:15.872Z,66.29
2022-10-11T22:40:46.502Z,66.70
2022-10-11T22:43:17.223Z,67.52
2022-10-11T22:45:48.050Z,67.17
2022-10-11T22:48:18.701Z,67.05
2022-10-11T22:50:49.577Z,66.83
2022-10-11T22:53:20.385Z,66.93
2022-10-11T22:55:51.020Z,66.12
2022-10-11T22:58:21.887Z,66.33
2022-10-11T23:00:52.535Z,66.14
2022-10-11T23:03:23.250Z,66.82
2022-10-11T23:06:00.619Z,66.89
2022-10-11T23:08:31.409Z,66.48
2022-10-11T23:11:07.056Z,66.90
2022-10-11T23:13:38.195Z,67.47
2022-10-11T23:16:13.503Z,67.41
2022-10-11T23:18:44.955Z,67.28
2022-10-11T23:21:15.643Z,66.92
2022-10-11T23:23:46.192Z,67.47
2022-10-11T23:26:17.966Z,66.61
2022-10-11T23:28:48.744Z,66.39
2022-10-11T23:31:20.713Z,66.23
2022-10-11T23:33:51.544Z,66.53
2022-10-11T23:36:24.625Z,66.56
2022-10-11T23:38:56.590Z,67.30
2022-10-11T23:41:29.806Z,66.33
2022-10-11T23:44:00.465Z,66.65
2022-10-11T23:46:31.321Z,66.79
2022-10-11T23:49:01.968Z,67.16
2022-10-11T23:51:32.720Z,67.29
2022-10-11T23:54:03.347Z,66.63
2022-10-11T23:56:34.035Z,66.36
2022-10-11T23:59:04.799Z,66.27
